Time;durP1;ratioP1;P1;durP2;ratioP2;P2;SDS_P1;SDS_P2;PMS_P1;PMS_P2;Temp;Humidity;BMP_temperature;BMP_pressure;BME280_temperature;BME280_humidity;BME280_pressure;Samples;Min_cycle;Max_cycle;Signal;HPM_P1;HPM_P2
2023/06/06 00:01:34;;;;;;;11.05;7.47;;;10.70;99.90;;;;;;5008494;28;20472;-73
2023/06/06 00:04:00;;;;;;;13.15;8.25;;;10.70;99.90;;;;;;5011188;28;20448;-73
2023/06/06 00:06:27;;;;;;;10.35;7.80;;;10.60;99.90;;;;;;5011109;28;20175;-73
2023/06/06 00:08:53;;;;;;;11.52;8.80;;;10.60;99.90;;;;;;5010570;28;20038;-73
2023/06/06 00:11:22;;;;;;;8.98;7.47;;;10.60;99.90;;;;;;5009465;28;20501;-73
2023/06/06 00:13:50;;;;;;;10.95;7.88;;;10.60;99.90;;;;;;5011036;28;20133;-73
2023/06/06 00:16:16;;;;;;;13.27;7.57;;;10.60;99.90;;;;;;5009456;28;20052;-73
2023/06/06 00:18:45;;;;;;;12.18;7.63;;;10.60;99.90;;;;;;5007168;28;20108;-73
2023/06/06 00:21:12;;;;;;;9.15;7.70;;;10.60;99.90;;;;;;5009011;28;20125;-72
2023/06/06 00:23:37;;;;;;;10.57;7.97;;;10.60;99.90;;;;;;4995839;28;20490;-73
2023/06/06 00:26:04;;;;;;;10.20;7.30;;;10.60;99.90;;;;;;5011335;28;20041;-72
2023/06/06 00:28:29;;;;;;;9.82;7.60;;;10.60;99.90;;;;;;5010021;28;20100;-72
2023/06/06 00:30:55;;;;;;;9.38;7.53;;;10.50;99.90;;;;;;5007121;28;20041;-72
2023/06/06 00:33:21;;;;;;;10.82;7.97;;;10.50;99.90;;;;;;5006675;28;20419;-72
2023/06/06 00:35:47;;;;;;;12.95;7.57;;;10.50;99.90;;;;;;5026610;28;20048;-73
2023/06/06 00:38:12;;;;;;;9.98;7.15;;;10.50;99.90;;;;;;5009955;28;20113;-72
2023/06/06 00:40:38;;;;;;;12.73;7.97;;;10.50;99.90;;;;;;5008570;28;20046;-72
2023/06/06 00:43:04;;;;;;;12.82;7.43;;;10.50;99.90;;;;;;5010719;28;20357;-72
2023/06/06 00:45:29;;;;;;;12.05;7.72;;;10.50;99.90;;;;;;5006696;28;20393;-72
2023/06/06 00:47:55;;;;;;;9.75;7.47;;;10.40;99.90;;;;;;5009470;28;20033;-73
2023/06/06 00:50:23;;;;;;;12.57;7.95;;;10.40;99.90;;;;;;5006487;28;20075;-72
2023/06/06 00:52:49;;;;;;;10.98;7.93;;;10.40;99.90;;;;;;5011966;28;20049;-73
2023/06/06 00:55:17;;;;;;;12.57;8.27;;;10.40;99.90;;;;;;5006058;28;20223;-73
2023/06/06 00:57:44;;;;;;;12.65;7.60;;;10.30;99.90;;;;;;4990266;28;20053;-73
2023/06/06 01:00:15;;;;;;;11.20;7.65;;;10.30;99.90;;;;;;5011228;28;20049;-73
2023/06/06 01:02:43;;;;;;;13.52;7.93;;;10.40;99.90;;;;;;5007634;28;20053;-73
2023/06/06 01:05:11;;;;;;;10.70;8.13;;;10.30;99.90;;;;;;5004114;28;20041;-73
2023/06/06 01:07:37;;;;;;;10.82;8.10;;;10.30;99.90;;;;;;5005845;28;20113;-73
2023/06/06 01:10:05;;;;;;;9.88;7.78;;;10.30;99.90;;;;;;5009110;28;20175;-73
2023/06/06 01:12:47;;;;;;;10.88;7.88;;;10.30;99.90;;;;;;5007161;28;20119;-73
2023/06/06 01:15:16;;;;;;;11.35;8.27;;;10.40;99.90;;;;;;5007215;28;20050;-73
2023/06/06 01:17:46;;;;;;;11.38;8.02;;;10.30;99.90;;;;;;4990713;28;20131;-73
2023/06/06 01:20:12;;;;;;;11.88;8.40;;;10.30;99.90;;;;;;4993974;28;20052;-73
2023/06/06 01:22:39;;;;;;;11.25;8.25;;;10.20;99.90;;;;;;5009410;28;20049;-73
2023/06/06 01:25:09;;;;;;;11.68;8.10;;;10.20;99.90;;;;;;4991588;28;20046;-73
2023/06/06 01:27:35;;;;;;;11.85;8.00;;;10.20;99.90;;;;;;5004788;28;20183;-73
2023/06/06 01:30:06;;;;;;;13.57;7.90;;;10.20;99.90;;;;;;5006702;28;20525;-74
2023/06/06 01:32:32;;;;;;;11.13;7.97;;;10.20;99.90;;;;;;5010731;28;20078;-73
2023/06/06 01:35:02;;;;;;;13.48;7.57;;;10.20;99.90;;;;;;5006082;28;20050;-73
2023/06/06 01:37:56;;;;;;;11.70;8.18;;;10.20;99.90;;;;;;4997231;28;20112;-72
2023/06/06 01:40:26;;;;;;;11.90;7.72;;;10.10;99.90;;;;;;5004360;28;20500;-73
2023/06/06 01:42:53;;;;;;;12.18;8.45;;;10.10;99.90;;;;;;5010025;28;20260;-73
2023/06/06 01:45:25;;;;;;;13.50;8.88;;;10.10;99.90;;;;;;5009503;28;20053;-72
2023/06/06 01:47:51;;;;;;;11.23;7.93;;;10.10;99.90;;;;;;5008013;28;20033;-73
2023/06/06 01:50:17;;;;;;;10.93;8.65;;;10.10;99.90;;;;;;5006857;28;20042;-72
2023/06/06 01:52:43;;;;;;;13.45;7.80;;;10.10;99.90;;;;;;5007787;28;20040;-73
2023/06/06 01:55:09;;;;;;;10.60;8.02;;;10.10;99.90;;;;;;5007521;28;20052;-73
2023/06/06 01:57:35;;;;;;;13.00;8.32;;;10.00;99.90;;;;;;4992460;28;20450;-73
2023/06/06 02:00:04;;;;;;;10.45;8.10;;;10.00;99.90;;;;;;5007852;28;20135;-73
2023/06/06 02:02:29;;;;;;;9.82;7.57;;;10.00;99.90;;;;;;5009471;28;20490;-73
2023/06/06 02:04:55;;;;;;;12.38;7.68;;;9.90;99.90;;;;;;5007791;28;20077;-73
2023/06/06 02:07:21;;;;;;;10.00;7.57;;;9.90;99.90;;;;;;5007038;28;20034;-72
2023/06/06 02:09:46;;;;;;;12.25;8.20;;;9.90;99.90;;;;;;5009845;28;20045;-73
2023/06/06 02:12:12;;;;;;;11.55;8.07;;;9.90;99.90;;;;;;5009710;28;20080;-72
2023/06/06 02:14:38;;;;;;;13.82;8.65;;;9.90;99.90;;;;;;5009363;28;20049;-73
2023/06/06 02:17:04;;;;;;;15.30;8.60;;;9.90;99.90;;;;;;5010121;28;20046;-73
2023/06/06 02:19:33;;;;;;;12.65;8.15;;;9.90;99.90;;;;;;5010831;28;20073;-73
2023/06/06 02:21:58;;;;;;;13.45;8.30;;;9.90;99.90;;;;;;5006209;28;20045;-73
2023/06/06 02:24:24;;;;;;;10.05;8.23;;;9.90;99.90;;;;;;5013730;28;20068;-73
2023/06/06 02:26:54;;;;;;;9.82;7.78;;;9.90;99.90;;;;;;4997412;28;20408;-73
2023/06/06 02:29:22;;;;;;;14.35;8.50;;;9.90;99.90;;;;;;5013201;28;20156;-73
2023/06/06 02:31:49;;;;;;;11.43;8.93;;;9.90;99.90;;;;;;5011662;28;20489;-73
2023/06/06 02:34:15;;;;;;;11.88;9.25;;;9.80;99.90;;;;;;5012835;28;20040;-73
2023/06/06 02:36:41;;;;;;;11.63;8.98;;;9.80;99.90;;;;;;5012531;28;20433;-73
2023/06/06 02:39:08;;;;;;;15.32;8.95;;;9.80;99.90;;;;;;5013636;28;20124;-73
2023/06/06 02:41:34;;;;;;;11.75;8.30;;;9.80;99.90;;;;;;5008721;28;20401;-73
2023/06/06 02:44:00;;;;;;;13.30;8.65;;;9.80;99.90;;;;;;4996227;28;20385;-73
2023/06/06 02:46:25;;;;;;;12.50;8.13;;;9.70;99.90;;;;;;5012692;28;20057;-73
2023/06/06 02:48:52;;;;;;;15.20;8.43;;;9.70;99.90;;;;;;5010586;28;20118;-73
2023/06/06 02:51:20;;;;;;;11.10;8.18;;;9.70;99.90;;;;;;5013364;28;20547;-73
2023/06/06 02:53:46;;;;;;;9.02;7.70;;;9.70;99.90;;;;;;5012303;28;20060;-73
2023/06/06 02:56:12;;;;;;;14.07;8.20;;;9.70;99.90;;;;;;4997093;28;20045;-73
2023/06/06 02:58:38;;;;;;;17.38;8.65;;;9.70;99.90;;;;;;4996674;28;20289;-73
2023/06/06 03:01:04;;;;;;;10.90;8.00;;;9.70;99.90;;;;;;5030168;28;20125;-73
2023/06/06 03:03:31;;;;;;;14.32;8.50;;;9.70;99.90;;;;;;5011778;28;20050;-73
2023/06/06 03:05:57;;;;;;;14.52;8.63;;;9.70;99.90;;;;;;4996941;28;20041;-72
2023/06/06 03:08:23;;;;;;;15.48;8.75;;;9.70;99.90;;;;;;5013540;28;20438;-73
2023/06/06 03:10:50;;;;;;;13.90;8.70;;;9.70;99.90;;;;;;5009359;28;20331;-73
2023/06/06 03:13:17;;;;;;;13.18;8.70;;;9.70;99.90;;;;;;5010617;28;20046;-72
2023/06/06 03:15:44;;;;;;;12.23;8.43;;;9.60;99.90;;;;;;5010377;28;20049;-73
2023/06/06 03:18:11;;;;;;;14.43;9.13;;;9.60;99.90;;;;;;5008121;28;20094;-73
2023/06/06 03:20:41;;;;;;;16.50;10.30;;;9.70;99.90;;;;;;5008669;28;20117;-73
2023/06/06 03:23:10;;;;;;;15.27;8.88;;;9.60;99.90;;;;;;5009717;28;20046;-73
2023/06/06 03:25:36;;;;;;;14.20;8.95;;;9.60;99.90;;;;;;5010857;28;20038;-73
2023/06/06 03:28:02;;;;;;;13.40;9.02;;;9.70;99.90;;;;;;5009056;28;20045;-73
2023/06/06 03:30:28;;;;;;;12.15;8.75;;;9.70;99.90;;;;;;4997388;28;20057;-73
2023/06/06 03:32:55;;;;;;;15.85;8.95;;;9.70;99.90;;;;;;5012892;28;20067;-73
2023/06/06 03:35:22;;;;;;;12.80;9.38;;;9.70;99.90;;;;;;5005349;28;20522;-73
2023/06/06 03:37:47;;;;;;;15.07;8.80;;;9.70;99.90;;;;;;5011518;28;20055;-73
2023/06/06 03:40:13;;;;;;;16.15;9.23;;;9.70;99.90;;;;;;4994006;28;20045;-73
2023/06/06 03:42:39;;;;;;;14.95;8.43;;;9.70;99.90;;;;;;5010072;28;20225;-73
2023/06/06 03:45:05;;;;;;;17.42;8.98;;;9.70;99.90;;;;;;5007685;28;20427;-73
2023/06/06 03:47:31;;;;;;;13.00;8.88;;;9.70;99.90;;;;;;5011172;28;20041;-73
2023/06/06 03:49:57;;;;;;;12.60;9.75;;;9.70;99.90;;;;;;5007336;28;20100;-73
2023/06/06 03:52:23;;;;;;;12.57;9.65;;;9.70;99.90;;;;;;5012955;28;20033;-73
2023/06/06 03:54:49;;;;;;;15.85;9.82;;;9.70;99.90;;;;;;5012773;28;20120;-73
2023/06/06 03:57:16;;;;;;;16.13;9.68;;;9.80;99.90;;;;;;4992262;28;20124;-73
2023/06/06 03:59:42;;;;;;;15.10;9.27;;;9.70;99.90;;;;;;5012881;28;20113;-73
2023/06/06 04:02:07;;;;;;;13.43;9.40;;;9.70;99.90;;;;;;5012552;28;20128;-73
2023/06/06 04:04:33;;;;;;;13.45;8.93;;;9.80;99.90;;;;;;5011886;28;20465;-73
2023/06/06 04:06:59;;;;;;;16.17;9.57;;;9.80;99.90;;;;;;4995941;28;20082;-73
2023/06/06 04:09:24;;;;;;;15.80;9.20;;;9.80;99.90;;;;;;5012678;28;20470;-72
2023/06/06 04:11:50;;;;;;;17.80;10.15;;;9.90;99.90;;;;;;5010669;28;20497;-73
2023/06/06 04:14:16;;;;;;;12.45;8.50;;;9.90;99.90;;;;;;5012444;28;20045;-73
2023/06/06 04:16:42;;;;;;;14.57;9.07;;;9.90;99.90;;;;;;5008053;28;20474;-73
2023/06/06 04:19:08;;;;;;;12.93;8.82;;;9.90;99.90;;;;;;5008310;28;20042;-73
2023/06/06 04:21:33;;;;;;;17.27;10.18;;;10.00;99.90;;;;;;4996465;28;20107;-73
2023/06/06 04:24:00;;;;;;;14.77;9.43;;;10.10;99.90;;;;;;4995809;28;20488;-73
2023/06/06 04:26:31;;;;;;;13.80;9.45;;;10.10;99.90;;;;;;5010576;28;20045;-73
2023/06/06 04:29:00;;;;;;;11.60;8.45;;;10.20;99.90;;;;;;5012677;28;20393;-73
2023/06/06 04:31:29;;;;;;;17.70;9.65;;;10.30;99.90;;;;;;5008657;28;20038;-73
2023/06/06 04:33:56;;;;;;;14.77;9.20;;;10.30;99.90;;;;;;5009485;28;20049;-73
2023/06/06 04:36:25;;;;;;;13.18;9.43;;;10.40;99.90;;;;;;4995088;28;20125;-73
2023/06/06 04:38:51;;;;;;;11.73;8.50;;;10.50;99.90;;;;;;5012088;28;20527;-72
2023/06/06 04:41:17;;;;;;;16.60;9.32;;;10.50;99.90;;;;;;5011322;28;20041;-73
2023/06/06 04:43:49;;;;;;;14.35;8.48;;;10.60;99.90;;;;;;5011650;28;20145;-73
2023/06/06 04:46:23;;;;;;;16.02;8.25;;;10.70;99.90;;;;;;5010017;28;20041;-73
2023/06/06 04:48:56;;;;;;;16.38;8.65;;;10.70;99.90;;;;;;5007705;28;20514;-73
2023/06/06 04:51:29;;;;;;;13.15;9.18;;;10.80;99.90;;;;;;5005056;28;20084;-73
2023/06/06 04:53:57;;;;;;;17.02;9.48;;;10.90;99.90;;;;;;4985185;28;20524;-73
2023/06/06 04:56:23;;;;;;;13.52;8.88;;;11.10;99.90;;;;;;5008319;28;20041;-73
2023/06/06 04:58:48;;;;;;;14.52;8.55;;;11.40;99.90;;;;;;5011057;28;20084;-73
2023/06/06 05:01:15;;;;;;;16.67;7.97;;;11.80;99.90;;;;;;5010385;28;20077;-73
2023/06/06 05:03:41;;;;;;;13.60;8.13;;;12.20;99.90;;;;;;5009078;28;20049;-72
2023/06/06 05:06:07;;;;;;;14.70;8.43;;;12.50;99.90;;;;;;5026466;28;20045;-73
2023/06/06 05:08:40;;;;;;;15.13;8.90;;;12.50;99.90;;;;;;5012323;28;20385;-73
2023/06/06 05:11:06;;;;;;;11.05;7.35;;;12.70;99.90;;;;;;5008385;28;20048;-73
2023/06/06 05:13:32;;;;;;;10.82;7.40;;;12.80;99.90;;;;;;5011805;28;20124;-73
2023/06/06 05:15:57;;;;;;;10.00;7.07;;;13.00;99.90;;;;;;5010657;28;20240;-73
2023/06/06 05:18:24;;;;;;;13.15;7.57;;;12.90;99.90;;;;;;5008682;28;20044;-73
2023/06/06 05:20:50;;;;;;;11.95;7.65;;;12.70;99.90;;;;;;5008194;28;20041;-73
2023/06/06 05:23:16;;;;;;;14.23;7.40;;;12.60;99.90;;;;;;5011190;28;20049;-73
2023/06/06 05:25:41;;;;;;;12.70;7.22;;;12.60;99.90;;;;;;5008008;28;20413;-73
2023/06/06 05:28:07;;;;;;;14.68;7.15;;;12.50;99.90;;;;;;5011993;28;20049;-73
2023/06/06 05:30:33;;;;;;;12.38;6.50;;;12.50;99.90;;;;;;5011183;28;20041;-72
2023/06/06 05:32:58;;;;;;;13.25;5.88;;;12.50;99.90;;;;;;5023613;28;20072;-73
2023/06/06 05:35:24;;;;;;;11.65;5.63;;;12.60;99.90;;;;;;5010210;28;20061;-72
2023/06/06 05:37:50;;;;;;;12.20;5.65;;;12.60;99.90;;;;;;5011558;28;20041;-73
2023/06/06 05:40:16;;;;;;;13.10;5.78;;;12.70;99.90;;;;;;4994864;28;20057;-73
2023/06/06 05:42:41;;;;;;;11.90;5.68;;;12.70;99.90;;;;;;4995335;28;20488;-72
2023/06/06 05:45:07;;;;;;;15.77;5.95;;;12.70;99.90;;;;;;4991900;28;20127;-72
2023/06/06 05:47:33;;;;;;;15.60;6.72;;;12.70;99.90;;;;;;5008124;28;20045;-72
2023/06/06 05:49:59;;;;;;;14.07;5.78;;;12.70;99.90;;;;;;5007033;28;20143;-73
2023/06/06 05:52:26;;;;;;;12.05;5.72;;;12.80;99.90;;;;;;5005401;28;20042;-73
2023/06/06 05:55:03;;;;;;;12.57;5.43;;;12.80;99.90;;;;;;4989173;28;20029;-74
2023/06/06 05:57:29;;;;;;;12.35;5.35;;;12.90;99.90;;;;;;5006073;28;20037;-72
2023/06/06 05:59:55;;;;;;;11.13;5.28;;;12.90;99.90;;;;;;5025767;28;20211;-72
2023/06/06 06:02:22;;;;;;;11.48;5.32;;;13.00;99.90;;;;;;5006207;28;20400;-71
2023/06/06 06:04:52;;;;;;;13.88;5.43;;;13.00;99.90;;;;;;5005807;28;20553;-72
2023/06/06 06:07:22;;;;;;;17.63;6.00;;;13.10;99.90;;;;;;5006930;28;20614;-72
2023/06/06 06:09:47;;;;;;;12.15;5.22;;;13.30;99.90;;;;;;4989621;28;20038;-72
2023/06/06 06:12:13;;;;;;;11.15;4.38;;;13.40;99.90;;;;;;5002965;28;20361;-72
2023/06/06 06:14:39;;;;;;;13.80;4.95;;;13.50;99.90;;;;;;5005138;28;20076;-72
2023/06/06 06:17:05;;;;;;;13.88;5.97;;;13.60;99.90;;;;;;5007954;28;20150;-72
2023/06/06 06:19:30;;;;;;;11.88;5.15;;;13.80;99.90;;;;;;5009239;28;20053;-73
2023/06/06 06:21:56;;;;;;;9.52;5.20;;;13.80;99.90;;;;;;5009036;28;20046;-72
2023/06/06 06:24:21;;;;;;;14.07;5.50;;;13.80;99.90;;;;;;5010373;28;20087;-72
2023/06/06 06:26:48;;;;;;;13.88;5.82;;;13.90;99.90;;;;;;5010459;28;20057;-71
2023/06/06 06:29:13;;;;;;;12.65;5.60;;;13.90;99.90;;;;;;5008409;28;20046;-74
2023/06/06 06:31:39;;;;;;;12.35;4.75;;;13.90;99.90;;;;;;5009611;28;20037;-71
2023/06/06 06:34:05;;;;;;;11.80;5.60;;;14.00;99.90;;;;;;5007836;28;20040;-72
2023/06/06 06:36:30;;;;;;;13.48;5.45;;;14.00;99.90;;;;;;5008524;28;20041;-72
2023/06/06 06:38:56;;;;;;;13.07;5.10;;;14.20;99.90;;;;;;5010787;28;20042;-72
2023/06/06 06:41:23;;;;;;;13.45;5.78;;;14.40;99.90;;;;;;5009687;28;20521;-72
2023/06/06 06:43:50;;;;;;;15.18;5.55;;;14.40;99.90;;;;;;5009952;28;20069;-72
2023/06/06 06:46:16;;;;;;;12.00;4.88;;;14.50;99.90;;;;;;5026296;28;20072;-72
2023/06/06 06:48:45;;;;;;;11.48;5.63;;;14.60;99.90;;;;;;5008731;28;20272;-72
2023/06/06 06:51:13;;;;;;;8.27;5.30;;;14.60;99.90;;;;;;5009121;28;20145;-71
2023/06/06 06:53:39;;;;;;;11.52;5.15;;;14.70;99.90;;;;;;4998890;28;20108;-73
2023/06/06 06:56:05;;;;;;;13.70;5.30;;;14.80;99.90;;;;;;5009285;28;20124;-72
2023/06/06 06:58:35;;;;;;;10.18;4.82;;;14.90;99.90;;;;;;5008697;28;20042;-71
2023/06/06 07:01:02;;;;;;;12.90;5.40;;;14.90;99.90;;;;;;5007435;28;20045;-72
2023/06/06 07:03:28;;;;;;;10.25;4.85;;;14.90;99.90;;;;;;5010336;28;20048;-72
2023/06/06 07:05:54;;;;;;;10.57;4.80;;;15.00;99.90;;;;;;5012205;28;20077;-71
2023/06/06 07:08:20;;;;;;;10.15;5.10;;;15.00;99.90;;;;;;5013889;28;20033;-74
2023/06/06 07:10:46;;;;;;;12.18;5.15;;;15.00;99.90;;;;;;5013994;28;20048;-73
2023/06/06 07:13:14;;;;;;;11.48;4.82;;;15.20;99.90;;;;;;5012453;28;20103;-72
2023/06/06 07:15:40;;;;;;;11.63;4.88;;;15.20;99.90;;;;;;5014373;28;20048;-72
2023/06/06 07:18:06;;;;;;;11.70;5.22;;;15.30;99.90;;;;;;5010894;28;20037;-72
2023/06/06 07:20:32;;;;;;;11.00;4.97;;;15.40;99.90;;;;;;5014110;28;20511;-72
2023/06/06 07:22:57;;;;;;;10.35;5.20;;;15.50;99.90;;;;;;5015008;28;20471;-72
2023/06/06 07:25:23;;;;;;;11.02;5.30;;;15.50;99.90;;;;;;5014733;28;20037;-73
2023/06/06 07:27:49;;;;;;;10.02;4.72;;;15.60;99.90;;;;;;4999156;28;20073;-70
2023/06/06 07:30:15;;;;;;;12.27;4.38;;;15.70;99.90;;;;;;5014048;28;20077;-71
2023/06/06 07:32:42;;;;;;;9.68;4.60;;;15.80;99.90;;;;;;5011802;28;20525;-70
2023/06/06 07:35:14;;;;;;;10.95;4.75;;;15.90;99.90;;;;;;5011738;28;20216;-71
2023/06/06 07:37:40;;;;;;;9.73;4.65;;;15.90;99.90;;;;;;5010304;28;20037;-71
2023/06/06 07:40:11;;;;;;;13.63;5.53;;;16.00;99.90;;;;;;5012499;28;20358;-70
2023/06/06 07:42:39;;;;;;;8.57;4.50;;;16.10;99.90;;;;;;5011608;28;20038;-70
2023/06/06 07:45:05;;;;;;;8.88;4.55;;;16.20;99.90;;;;;;4996194;28;20045;-70
2023/06/06 07:47:30;;;;;;;11.93;4.65;;;16.40;99.90;;;;;;5007304;28;20048;-70
2023/06/06 07:49:56;;;;;;;12.20;5.00;;;16.50;99.90;;;;;;5011539;28;20406;-70
2023/06/06 07:52:22;;;;;;;12.65;4.97;;;16.50;99.90;;;;;;5007884;28;20041;-70
2023/06/06 07:54:47;;;;;;;12.65;4.82;;;16.50;99.90;;;;;;5013720;28;20039;-70
2023/06/06 07:57:16;;;;;;;11.25;4.63;;;16.50;99.90;;;;;;5010306;28;20128;-70
2023/06/06 07:59:45;;;;;;;10.98;4.60;;;16.60;99.90;;;;;;5011940;28;20049;-70
2023/06/06 08:02:14;;;;;;;10.45;4.47;;;16.60;99.90;;;;;;5013380;28;20158;-70
2023/06/06 08:04:45;;;;;;;8.10;4.43;;;16.70;99.90;;;;;;5011171;28;20050;-71
2023/06/06 08:07:14;;;;;;;8.90;4.28;;;16.80;99.90;;;;;;5012980;28;20044;-71
2023/06/06 08:09:42;;;;;;;13.85;4.75;;;16.90;99.90;;;;;;5013374;28;20041;-71
2023/06/06 08:12:08;;;;;;;8.10;4.40;;;17.10;99.90;;;;;;5011241;28;20460;-70
2023/06/06 08:14:35;;;;;;;11.30;4.30;;;17.30;99.90;;;;;;4996757;28;20087;-72
2023/06/06 08:17:04;;;;;;;11.20;4.75;;;17.40;99.90;;;;;;5011489;28;20056;-71
2023/06/06 08:19:29;;;;;;;9.82;4.65;;;17.40;99.90;;;;;;5012679;28;20057;-71
2023/06/06 08:21:55;;;;;;;8.73;4.88;;;17.40;99.90;;;;;;5012042;28;20053;-71
2023/06/06 08:24:21;;;;;;;8.93;4.43;;;17.50;99.90;;;;;;5028157;28;20046;-72
2023/06/06 08:26:46;;;;;;;9.15;4.45;;;17.60;99.90;;;;;;5009161;28;20091;-70
2023/06/06 08:29:14;;;;;;;7.93;4.50;;;17.80;99.90;;;;;;5010629;28;20056;-71
2023/06/06 08:31:40;;;;;;;8.20;4.40;;;18.00;99.90;;;;;;5011618;28;20370;-71
2023/06/06 08:34:06;;;;;;;6.38;3.65;;;18.00;99.90;;;;;;5010041;28;20077;-71
2023/06/06 08:36:32;;;;;;;8.75;4.40;;;18.00;99.90;;;;;;5010510;28;20084;-71
2023/06/06 08:38:58;;;;;;;7.35;4.18;;;18.10;99.90;;;;;;5013677;28;20541;-72
2023/06/06 08:41:26;;;;;;;11.18;4.88;;;18.30;99.90;;;;;;5011348;28;20170;-71
2023/06/06 08:43:53;;;;;;;9.55;4.05;;;18.30;99.90;;;;;;5012379;28;20547;-70
2023/06/06 08:46:19;;;;;;;10.27;4.53;;;18.40;99.90;;;;;;4997195;28;20045;-71
2023/06/06 08:48:46;;;;;;;7.57;4.05;;;18.50;99.90;;;;;;5012500;28;20069;-71
2023/06/06 08:51:13;;;;;;;11.48;3.92;;;18.50;99.90;;;;;;5009006;28;20137;-71
2023/06/06 08:53:38;;;;;;;8.98;4.75;;;18.80;99.90;;;;;;5009573;28;20050;-69
2023/06/06 08:56:08;;;;;;;7.22;4.28;;;19.10;99.90;;;;;;5008819;28;20052;-73
2023/06/06 08:58:36;;;;;;;11.20;4.40;;;19.10;99.90;;;;;;5010807;28;20508;-72
2023/06/06 09:01:02;;;;;;;8.07;4.03;;;19.20;99.90;;;;;;5010343;28;20060;-72
2023/06/06 09:03:31;;;;;;;6.45;4.13;;;19.20;99.90;;;;;;5007396;28;20048;-72
2023/06/06 09:06:00;;;;;;;5.95;3.55;;;19.60;99.90;;;;;;5010414;28;20080;-71
2023/06/06 09:08:26;;;;;;;9.32;4.32;;;19.70;99.90;;;;;;5010747;28;20048;-72
2023/06/06 09:10:52;;;;;;;6.72;3.50;;;19.80;99.90;;;;;;5009387;28;20088;-71
2023/06/06 09:13:18;;;;;;;8.77;4.13;;;19.90;99.90;;;;;;5008143;28;20144;-73
2023/06/06 09:15:47;;;;;;;8.38;4.00;;;19.80;99.90;;;;;;5008800;28;20046;-72
2023/06/06 09:18:14;;;;;;;11.10;4.55;;;19.80;99.90;;;;;;5004714;28;20038;-70
2023/06/06 09:20:40;;;;;;;9.15;3.50;;;19.70;99.90;;;;;;5010775;28;20124;-71
2023/06/06 09:23:13;;;;;;;10.60;4.05;;;19.90;99.90;;;;;;5011676;28;20187;-71
2023/06/06 09:25:42;;;;;;;9.60;4.43;;;20.00;99.90;;;;;;4994070;28;20088;-72
2023/06/06 09:28:08;;;;;;;9.02;3.97;;;20.20;99.90;;;;;;5008477;28;20104;-71
2023/06/06 09:30:35;;;;;;;10.10;4.63;;;20.30;99.90;;;;;;5010305;28;20526;-71
2023/06/06 09:33:03;;;;;;;11.63;4.75;;;20.30;99.90;;;;;;5010283;28;20409;-71
2023/06/06 09:35:31;;;;;;;9.82;4.90;;;20.40;99.90;;;;;;5011828;28;20077;-71
2023/06/06 09:38:16;;;;;;;10.80;4.05;;;20.50;99.90;;;;;;5008795;28;20580;-72
2023/06/06 09:40:47;;;;;;;6.30;3.58;;;20.40;99.90;;;;;;4993110;28;20140;-72
2023/06/06 09:43:16;;;;;;;9.15;5.10;;;20.80;99.90;;;;;;5001518;28;20038;-71
2023/06/06 09:45:52;;;;;;;7.00;4.30;;;20.60;99.90;;;;;;5008451;28;20054;-71
2023/06/06 09:48:21;;;;;;;9.77;3.90;;;20.80;99.90;;;;;;5007407;28;20111;-71
2023/06/06 09:50:46;;;;;;;8.38;4.15;;;21.10;99.90;;;;;;5011029;28;20408;-73
2023/06/06 09:53:12;;;;;;;9.70;4.30;;;21.40;99.90;;;;;;5010359;28;20034;-71
2023/06/06 09:55:40;;;;;;;6.47;4.53;;;21.50;99.90;;;;;;5012701;28;20044;-71
2023/06/06 09:58:07;;;;;;;8.77;4.15;;;21.80;99.90;;;;;;5012433;28;20041;-71
2023/06/06 10:00:37;;;;;;;6.68;4.05;;;21.70;99.90;;;;;;5010205;28;20049;-72
2023/06/06 10:03:06;;;;;;;10.30;4.38;;;21.80;98.90;;;;;;5010108;28;20077;-71
2023/06/06 10:05:32;;;;;;;6.90;4.10;;;21.60;99.90;;;;;;5009448;28;20055;-70
2023/06/06 10:07:58;;;;;;;7.82;4.05;;;21.70;99.80;;;;;;5010265;28;20486;-71
2023/06/06 10:10:24;;;;;;;8.63;3.88;;;21.70;99.70;;;;;;5011883;28;20037;-71
2023/06/06 10:12:53;;;;;;;6.80;3.83;;;21.80;99.90;;;;;;5010197;28;20033;-71
2023/06/06 10:15:20;;;;;;;5.80;3.75;;;21.90;98.50;;;;;;5010298;28;20567;-72
2023/06/06 10:17:46;;;;;;;7.10;3.75;;;21.60;98.40;;;;;;5010340;28;20041;-72
2023/06/06 10:20:12;;;;;;;7.53;4.05;;;21.60;99.60;;;;;;5009535;28;20042;-71
2023/06/06 10:22:41;;;;;;;8.15;3.90;;;21.70;99.90;;;;;;5012141;28;20034;-72
2023/06/06 10:25:16;;;;;;;7.15;4.38;;;21.70;99.90;;;;;;5010476;28;20041;-72
2023/06/06 10:28:10;;;;;;;10.77;5.88;;;21.80;99.90;;;;;;5010646;28;20041;-71
2023/06/06 10:30:41;;;;;;;11.68;4.75;;;22.20;98.50;;;;;;5007069;28;20037;-71
2023/06/06 10:33:44;;;;;;;8.18;4.40;;;22.50;99.20;;;;;;5011566;28;20454;-72
2023/06/06 10:36:17;;;;;;;8.00;4.38;;;22.80;96.30;;;;;;5008411;28;20060;-72
2023/06/06 10:39:16;;;;;;;8.30;4.37;;;22.70;96.90;;;;;;5012913;28;20045;-72
2023/06/06 10:41:47;;;;;;;9.25;4.45;;;22.60;97.60;;;;;;5013977;28;20296;-71
2023/06/06 10:44:13;;;;;;;10.63;4.38;;;22.30;97.20;;;;;;5032423;28;20084;-71
2023/06/06 10:46:40;;;;;;;7.72;4.03;;;22.50;96.20;;;;;;5010978;28;20038;-71
2023/06/06 10:49:07;;;;;;;7.68;3.53;;;22.60;97.10;;;;;;5010594;28;20045;-72
2023/06/06 10:51:39;;;;;;;11.18;4.40;;;22.70;97.60;;;;;;5011932;28;20034;-70
2023/06/06 10:54:17;;;;;;;10.38;4.60;;;22.80;96.10;;;;;;5012295;28;20058;-72
2023/06/06 10:56:56;;;;;;;9.75;5.18;;;22.70;95.00;;;;;;5013697;28;20053;-70
2023/06/06 10:59:31;;;;;;;6.97;4.47;;;22.40;95.80;;;;;;5013952;28;20069;-71
2023/06/06 11:01:58;;;;;;;7.20;4.28;;;22.70;96.80;;;;;;5014438;28;20077;-70
2023/06/06 11:04:27;;;;;;;7.65;4.82;;;22.90;97.50;;;;;;5011612;28;20429;-70
2023/06/06 11:07:00;;;;;;;7.78;4.90;;;23.20;96.80;;;;;;5010676;28;20037;-72
2023/06/06 11:09:29;;;;;;;8.52;4.38;;;23.10;94.80;;;;;;5011347;28;20435;-72
2023/06/06 11:12:13;;;;;;;8.93;4.65;;;23.00;95.90;;;;;;5013666;28;20545;-70
2023/06/06 11:14:58;;;;;;;;;;;22.80;95.30;;;;;;5012986;28;20111;-72
2023/06/06 11:17:27;;;;;;;;;;;22.60;95.00;;;;;;5014234;28;20307;-74
2023/06/06 11:19:55;;;;;;;10.32;5.03;;;22.50;96.00;;;;;;5013751;28;20286;-72
2023/06/06 11:22:25;;;;;;;9.23;4.78;;;22.60;97.30;;;;;;5012241;28;20110;-71
2023/06/06 11:24:51;;;;;;;9.25;5.15;;;23.10;96.50;;;;;;5010069;28;20057;-73
2023/06/06 11:27:17;;;;;;;8.02;4.10;;;23.20;95.00;;;;;;5014122;28;20382;-71
2023/06/06 11:29:45;;;;;;;9.32;4.05;;;23.20;94.70;;;;;;5010728;28;20069;-72
2023/06/06 11:32:12;;;;;;;10.25;4.88;;;23.30;94.00;;;;;;5010607;28;20042;-73
2023/06/06 11:34:38;;;;;;;7.25;4.40;;;23.20;94.00;;;;;;5006949;28;20084;-72
2023/06/06 11:37:06;;;;;;;8.70;4.43;;;23.30;94.00;;;;;;5011928;28;20477;-75
2023/06/06 11:39:32;;;;;;;7.70;4.60;;;23.30;93.70;;;;;;4997759;28;20262;-73
2023/06/06 11:41:58;;;;;;;6.53;4.40;;;23.60;93.60;;;;;;5009811;28;20088;-72
2023/06/06 11:44:33;;;;;;;9.20;4.88;;;23.70;92.70;;;;;;5007985;28;20057;-72
2023/06/06 11:47:02;;;;;;;10.35;4.25;;;24.10;92.70;;;;;;5014031;28;20129;-73
2023/06/06 11:49:28;;;;;;;6.38;4.32;;;24.00;91.80;;;;;;5012205;28;20449;-73
2023/06/06 11:51:55;;;;;;;7.75;4.70;;;23.60;91.90;;;;;;5012188;28;20041;-73
2023/06/06 11:54:21;;;;;;;9.18;5.32;;;23.50;91.70;;;;;;5013486;28;20049;-72
2023/06/06 11:56:52;;;;;;;10.55;4.68;;;23.30;92.90;;;;;;5011132;28;20095;-73
2023/06/06 11:59:19;;;;;;;7.80;5.07;;;23.70;91.90;;;;;;5012198;28;20045;-72
2023/06/06 12:01:58;;;;;;;7.90;4.57;;;23.50;91.80;;;;;;5011613;28;20049;-73
2023/06/06 12:04:25;;;;;;;6.90;4.43;;;23.70;91.70;;;;;;5008724;28;20041;-74
2023/06/06 12:07:05;;;;;;;8.60;4.85;;;23.10;91.90;;;;;;5013428;28;20469;-76
2023/06/06 12:09:32;;;;;;;8.90;4.22;;;23.30;92.20;;;;;;5005747;28;20049;-74
2023/06/06 12:12:04;;;;;;;8.95;4.55;;;23.20;91.30;;;;;;5010314;28;20042;-74
2023/06/06 12:14:32;;;;;;;8.20;4.68;;;23.00;91.60;;;;;;4993816;28;20041;-74
2023/06/06 12:17:26;;;;;;;7.47;5.20;;;23.00;92.30;;;;;;5012736;28;20087;-74
2023/06/06 12:19:57;;;;;;;7.55;4.95;;;22.80;91.80;;;;;;5009887;28;20144;-74
2023/06/06 12:22:31;;;;;;;8.93;5.32;;;23.00;92.40;;;;;;5008315;28;20037;-72
2023/06/06 12:24:57;;;;;;;9.75;5.15;;;23.20;92.20;;;;;;5010086;28;20034;-73
2023/06/06 12:27:27;;;;;;;9.80;5.13;;;23.10;93.10;;;;;;5011717;28;20517;-75
2023/06/06 12:29:55;;;;;;;8.48;5.13;;;23.30;92.40;;;;;;5011384;28;20494;-74
2023/06/06 12:32:29;;;;;;;8.77;4.63;;;23.10;92.90;;;;;;5009542;28;20045;-74
2023/06/06 12:35:01;;;;;;;9.52;5.10;;;23.30;93.30;;;;;;5009247;28;20460;-77
2023/06/06 12:37:44;;;;;;;8.30;4.80;;;23.10;91.50;;;;;;5013352;28;20045;-77
2023/06/06 12:40:22;;;;;;;7.57;4.40;;;23.20;91.60;;;;;;4997984;28;20127;-77
2023/06/06 12:42:54;;;;;;;6.65;4.45;;;23.40;91.50;;;;;;4997319;28;20045;-76
2023/06/06 12:45:21;;;;;;;8.25;4.18;;;23.20;92.70;;;;;;5012129;28;20053;-76
2023/06/06 12:47:49;;;;;;;8.40;4.68;;;23.20;92.50;;;;;;5013599;28;20084;-76